Time;durP1;ratioP1;P1;durP2;ratioP2;P2;SDS_P1;SDS_P2;PMS_P1;PMS_P2;Temp;Humidity;BMP_temperature;BMP_pressure;BME280_temperature;BME280_humidity;BME280_pressure;Samples;Min_cycle;Max_cycle;Signal;HPM_P1;HPM_P2
2022/09/19 00:00:43;;;;;;;1.83;0.60;;;;;;;16.79;100.00;100636.94;7393686;19;20014;-59
2022/09/19 00:03:10;;;;;;;0.77;0.50;;;;;;;16.47;100.00;100634.09;7394280;19;20014;-59
2022/09/19 00:05:40;;;;;;;1.00;0.47;;;;;;;16.50;100.00;100632.34;7399499;19;20107;-59
2022/09/19 00:08:07;;;;;;;0.80;0.52;;;;;;;16.59;100.00;100630.13;7394420;19;20035;-58
2022/09/19 00:10:41;;;;;;;0.20;0.20;;;;;;;16.73;100.00;100633.31;7394035;19;20043;-58
2022/09/19 00:13:08;;;;;;;0.68;0.30;;;;;;;16.67;100.00;100636.84;7394868;19;20022;-59
2022/09/19 00:15:36;;;;;;;0.40;0.40;;;;;;;16.65;100.00;100633.75;7397587;19;20017;-59
2022/09/19 00:18:03;;;;;;;0.50;0.20;;;;;;;16.72;100.00;100632.53;7392642;19;20500;-59
2022/09/19 00:20:30;;;;;;;0.75;0.20;;;;;;;16.74;100.00;100632.78;7393609;19;20049;-59
2022/09/19 00:25:41;;;;;;;0.52;0.20;;;;;;;16.71;100.00;100635.84;7397153;19;20006;-59
2022/09/19 00:28:08;;;;;;;0.20;0.20;;;;;;;16.65;100.00;100636.56;7394949;19;20066;-58
2022/09/19 00:30:39;;;;;;;0.25;0.20;;;;;;;16.64;100.00;100637.84;7393958;19;20753;-59
2022/09/19 00:33:05;;;;;;;0.38;0.38;;;;;;;16.56;100.00;100642.38;7392729;19;20014;-59
2022/09/19 00:35:32;;;;;;;0.63;0.30;;;;;;;16.59;100.00;100641.38;7400062;19;20021;-59
2022/09/19 00:37:58;;;;;;;0.20;0.13;;;;;;;16.82;100.00;100641.56;7392165;19;20348;-58
2022/09/19 00:40:25;;;;;;;0.73;0.73;;;;;;;16.65;100.00;100645.00;7393299;19;20014;-59
2022/09/19 00:42:51;;;;;;;0.75;0.40;;;;;;;16.65;100.00;100647.06;7391901;19;20015;-59
2022/09/19 00:45:17;;;;;;;0.30;0.25;;;;;;;16.60;100.00;100647.78;7394663;19;20011;-59
2022/09/19 00:47:48;;;;;;;0.85;0.55;;;;;;;16.61;100.00;100650.09;7396542;19;20035;-59
2022/09/19 00:50:21;;;;;;;0.38;0.38;;;;;;;17.64;100.00;100649.78;7396791;19;20010;-59
2022/09/19 00:52:58;;;;;;;0.50;0.20;;;;;;;17.95;100.00;100652.47;7396105;19;20007;-59
2022/09/19 00:55:25;;;;;;;3.90;0.55;;;;;;;18.00;100.00;100648.91;7394838;19;20655;-59
2022/09/19 00:57:59;;;;;;;0.43;0.43;;;;;;;18.04;100.00;100638.16;7393648;19;20039;-59
2022/09/19 01:00:25;;;;;;;1.77;0.25;;;;;;;18.19;100.00;100643.59;7394139;19;20018;-59
2022/09/19 01:02:51;;;;;;;0.80;0.40;;;;;;;18.03;100.00;100633.81;7394916;19;20030;-59
2022/09/19 01:05:27;;;;;;;0.65;0.38;;;;;;;18.25;100.00;100635.13;7393840;19;20031;-59
2022/09/19 01:08:04;;;;;;;2.10;0.70;;;;;;;17.83;100.00;100641.66;7394959;19;20460;-59
2022/09/19 01:10:30;;;;;;;0.70;0.57;;;;;;;17.45;100.00;100643.03;7390260;19;20014;-59
2022/09/19 01:13:25;;;;;;;2.47;0.80;;;;;;;17.56;100.00;100642.34;7392625;19;20120;-59
2022/09/19 01:16:06;;;;;;;0.75;0.30;;;;;;;17.48;100.00;100650.44;7395145;19;20039;-59
2022/09/19 01:18:44;;;;;;;0.45;0.30;;;;;;;17.41;100.00;100648.13;7391101;19;20086;-59
2022/09/19 01:21:40;;;;;;;1.08;0.60;;;;;;;17.33;100.00;100652.66;7391341;19;20015;-59
2022/09/19 01:24:49;;;;;;;0.75;0.25;;;;;;;17.28;100.00;100656.22;7390348;19;20019;-59
2022/09/19 01:27:49;;;;;;;0.75;0.30;;;;;;;17.41;100.00;100654.50;7390706;19;20074;-59
2022/09/19 01:30:16;;;;;;;0.57;0.45;;;;;;;17.26;100.00;100650.34;7388510;19;20020;-59
2022/09/19 01:33:05;;;;;;;2.78;0.60;;;;;;;17.23;100.00;100648.50;7388381;19;20474;-59
2022/09/19 01:35:37;;;;;;;7.57;0.93;;;;;;;17.17;100.00;100644.91;7393655;19;20018;-59
2022/09/19 01:38:12;;;;;;;0.40;0.25;;;;;;;17.03;100.00;100640.19;7390254;19;20018;-59
2022/09/19 01:40:41;;;;;;;0.40;0.40;;;;;;;16.89;100.00;100644.69;7387406;19;20015;-59
2022/09/19 01:43:14;;;;;;;0.32;0.30;;;;;;;16.90;100.00;100642.66;7389601;19;20070;-59
2022/09/19 01:45:41;;;;;;;0.93;0.20;;;;;;;17.05;100.00;100632.78;7392052;19;20086;-58
2022/09/19 01:48:20;;;;;;;0.30;0.30;;;;;;;17.14;100.00;100634.63;7391498;19;20095;-59
2022/09/19 01:51:10;;;;;;;0.60;0.43;;;;;;;17.07;100.00;100623.84;7389952;19;20019;-59
2022/09/19 01:54:14;;;;;;;0.50;0.32;;;;;;;16.93;100.00;100636.81;7389735;19;20014;-59
2022/09/19 01:57:16;;;;;;;0.93;0.38;;;;;;;16.86;100.00;100626.00;7386149;19;20859;-59
2022/09/19 02:00:02;;;;;;;0.35;0.35;;;;;;;16.96;100.00;100635.78;7388629;19;20101;-59
2022/09/19 02:02:56;;;;;;;0.32;0.30;;;;;;;17.08;100.00;100634.59;7390789;19;20014;-58
2022/09/19 02:05:51;;;;;;;0.10;0.10;;;;;;;17.16;100.00;100632.09;7392800;19;20014;-58
2022/09/19 02:08:32;;;;;;;0.43;0.43;;;;;;;17.19;100.00;100636.72;7388890;19;20558;-59
2022/09/19 02:11:06;;;;;;;0.20;0.20;;;;;;;17.52;100.00;100639.00;7387460;19;20018;-59
2022/09/19 02:13:36;;;;;;;0.50;0.50;;;;;;;17.85;100.00;100639.13;7389000;19;20032;-59
2022/09/19 02:16:17;;;;;;;2.25;0.40;;;;;;;17.86;100.00;100635.81;7392799;19;20371;-58
2022/09/19 02:18:53;;;;;;;0.30;0.30;;;;;;;17.90;100.00;100632.72;7389041;19;20003;-60
2022/09/19 02:21:38;;;;;;;0.65;0.38;;;;;;;17.70;100.00;100639.31;7388025;19;20115;-59
2022/09/19 02:24:13;;;;;;;0.60;0.60;;;;;;;17.82;100.00;100629.63;7388305;19;20086;-58
2022/09/19 02:26:42;;;;;;;0.95;0.57;;;;;;;17.88;100.00;100624.78;7389492;19;20035;-59
2022/09/19 02:29:14;;;;;;;2.58;0.43;;;;;;;17.81;100.00;100619.63;7387475;19;20010;-59
2022/09/19 02:31:41;;;;;;;0.68;0.50;;;;;;;17.99;100.00;100624.84;7388817;19;20015;-59
2022/09/19 02:34:08;;;;;;;2.28;0.38;;;;;;;17.80;100.00;100620.91;7389157;19;20471;-59
2022/09/19 02:36:34;;;;;;;0.55;0.32;;;;;;;17.76;100.00;100623.19;7387533;19;20369;-58
2022/09/19 02:39:20;;;;;;;0.10;0.10;;;;;;;17.71;100.00;100621.16;7385680;19;20040;-58
2022/09/19 02:42:11;;;;;;;0.50;0.38;;;;;;;17.87;100.00;100631.69;7389395;19;20025;-58
2022/09/19 02:44:52;;;;;;;0.32;0.32;;;;;;;18.06;100.00;100629.97;7387584;19;20014;-59
2022/09/19 02:47:42;;;;;;;0.57;0.40;;;;;;;17.98;100.00;100623.28;7386432;19;20010;-59
2022/09/19 02:50:18;;;;;;;0.30;0.30;;;;;;;18.09;100.00;100628.19;7389873;19;20017;-58
2022/09/19 02:52:47;;;;;;;1.25;0.82;;;;;;;17.95;100.00;100629.19;7388219;19;20018;-58
2022/09/19 02:55:25;;;;;;;3.13;0.30;;;;;;;18.28;100.00;100626.41;7390546;19;20074;-59
2022/09/19 02:57:57;;;;;;;0.70;0.52;;;;;;;18.31;100.00;100624.63;7385932;19;20019;-58
2022/09/19 03:00:25;;;;;;;0.73;0.57;;;;;;;17.95;100.00;100624.28;7386610;19;20021;-58
2022/09/19 03:02:58;;;;;;;1.30;0.40;;;;;;;17.46;100.00;100627.66;7387584;19;20019;-58
2022/09/19 03:05:35;;;;;;;0.45;0.32;;;;;;;17.18;100.00;100629.53;7390174;19;20006;-58
2022/09/19 03:08:08;;;;;;;0.43;0.30;;;;;;;17.11;100.00;100630.00;7387768;19;20043;-58
2022/09/19 03:10:40;;;;;;;0.73;0.40;;;;;;;17.16;100.00;100632.09;7386108;19;20006;-58
2022/09/19 03:13:24;;;;;;;0.40;0.40;;;;;;;17.08;100.00;100636.66;7386833;19;20010;-58
2022/09/19 03:15:56;;;;;;;1.75;0.47;;;;;;;16.93;100.00;100625.56;7390024;19;20030;-58
2022/09/19 03:18:31;;;;;;;0.20;0.20;;;;;;;17.17;100.00;100628.75;7385585;19;20029;-58
2022/09/19 03:21:02;;;;;;;0.40;0.28;;;;;;;17.72;100.00;100630.34;7386030;19;20496;-58
2022/09/19 03:23:41;;;;;;;1.75;0.30;;;;;;;17.35;100.00;100627.59;7386483;19;20022;-58
2022/09/19 03:26:09;;;;;;;0.32;0.28;;;;;;;17.32;100.00;100625.78;7392843;19;20019;-58
2022/09/19 03:28:36;;;;;;;0.43;0.30;;;;;;;16.94;100.00;100634.75;7390200;19;20097;-58
2022/09/19 03:31:02;;;;;;;0.30;0.30;;;;;;;16.91;100.00;100624.50;7394991;19;20114;-58
2022/09/19 03:33:29;;;;;;;1.27;0.28;;;;;;;17.73;100.00;100620.63;7394713;19;20041;-58
2022/09/19 03:36:00;;;;;;;1.77;0.32;;;;;;;17.23;100.00;100628.81;7396673;19;20372;-58
2022/09/19 03:38:26;;;;;;;0.77;0.38;;;;;;;17.60;100.00;100626.72;7391354;19;20085;-58
2022/09/19 03:40:53;;;;;;;0.30;0.15;;;;;;;17.49;100.00;100628.69;7393685;19;20673;-58
2022/09/19 03:43:20;;;;;;;3.50;1.25;;;;;;;17.90;100.00;100633.50;7392970;19;20018;-58
2022/09/19 03:45:46;;;;;;;1.20;0.57;;;;;;;17.41;100.00;100629.16;7396796;19;20046;-58
2022/09/19 03:48:12;;;;;;;0.52;0.52;;;;;;;17.46;100.00;100633.28;7394080;19;20246;-58
2022/09/19 03:50:38;;;;;;;0.60;0.30;;;;;;;18.16;100.00;100625.63;7395109;19;20094;-58
2022/09/19 03:53:11;;;;;;;1.02;0.50;;;;;;;14.16;100.00;100632.34;7393295;19;20018;-58
2022/09/19 03:55:38;;;;;;;0.30;0.30;;;;;;;12.41;100.00;100648.25;7396850;19;20035;-58
2022/09/19 03:58:05;;;;;;;0.20;0.20;;;;;;;11.95;100.00;100651.06;7390562;19;20017;-58
2022/09/19 04:00:32;;;;;;;0.60;0.60;;;;;;;12.17;100.00;100662.84;7391095;19;20010;-59
2022/09/19 04:02:58;;;;;;;1.40;0.90;;;;;;;11.88;100.00;100659.00;7393279;19;20014;-58
2022/09/19 04:05:26;;;;;;;0.47;0.40;;;;;;;11.91;100.00;100661.63;7396958;19;20356;-58
2022/09/19 04:07:54;;;;;;;0.40;0.32;;;;;;;12.12;100.00;100666.28;7392857;19;20015;-58
2022/09/19 04:10:21;;;;;;;0.20;0.20;;;;;;;11.96;100.00;100663.03;7392302;19;20386;-58
2022/09/19 04:12:48;;;;;;;0.20;0.20;;;;;;;12.30;100.00;100659.88;7393155;19;20010;-58
2022/09/19 04:15:16;;;;;;;0.25;0.25;;;;;;;12.44;100.00;100669.66;7395219;19;20354;-58
2022/09/19 04:17:43;;;;;;;2.45;0.22;;;;;;;12.43;100.00;100656.94;7392263;19;20011;-58
2022/09/19 04:20:15;;;;;;;2.53;0.28;;;;;;;12.47;100.00;100671.50;7391369;19;20014;-58
2022/09/19 04:22:59;;;;;;;0.40;0.40;;;;;;;12.52;100.00;100660.47;7391426;19;20452;-58
2022/09/19 04:25:46;;;;;;;0.30;0.30;;;;;;;12.17;100.00;100674.03;7396013;19;20385;-58
2022/09/19 04:28:20;;;;;;;3.15;0.68;;;;;;;12.14;100.00;100674.19;7395761;19;20007;-58
2022/09/19 04:30:46;;;;;;;1.55;0.50;;;;;;;11.90;100.00;100676.84;7392839;19;20018;-58
2022/09/19 04:33:14;;;;;;;0.20;0.20;;;;;;;11.63;100.00;100671.19;7392208;19;20088;-58
2022/09/19 04:35:41;;;;;;;4.43;0.82;;;;;;;11.80;100.00;100678.03;7396107;19;20034;-58
2022/09/19 04:38:12;;;;;;;1.10;0.50;;;;;;;12.80;100.00;100673.13;7389851;19;20370;-58
2022/09/19 04:40:41;;;;;;;1.77;0.40;;;;;;;12.97;100.00;100665.16;7390600;19;20014;-58
2022/09/19 04:43:09;;;;;;;0.40;0.40;;;;;;;15.19;100.00;100654.22;7391395;19;20251;-58
2022/09/19 04:45:37;;;;;;;0.68;0.40;;;;;;;17.42;100.00;100644.00;7396144;19;20017;-58
2022/09/19 04:48:17;;;;;;;0.67;0.50;;;;;;;17.83;100.00;100650.13;7391572;19;20013;-58
2022/09/19 04:50:47;;;;;;;1.05;0.25;;;;;;;16.46;100.00;100643.00;7391031;19;20239;-58
2022/09/19 04:53:16;;;;;;;1.42;0.50;;;;;;;17.76;100.00;100645.75;7391510;19;20025;-58
2022/09/19 04:55:49;;;;;;;0.60;0.25;;;;;;;16.50;100.00;100644.34;7393446;19;20010;-58
2022/09/19 04:58:15;;;;;;;;;;;;;;;16.52;100.00;100641.81;7390734;19;20007;-58
2022/09/19 05:00:45;;;;;;;0.88;0.43;;;;;;;16.60;100.00;100642.94;7389014;19;20062;-58
2022/09/19 05:03:15;;;;;;;0.57;0.30;;;;;;;16.39;100.00;100638.63;7389135;19;20041;-58
2022/09/19 05:05:53;;;;;;;1.23;0.50;;;;;;;17.72;100.00;100641.63;7392762;19;20418;-58
2022/09/19 05:08:25;;;;;;;1.83;0.75;;;;;;;17.94;100.00;100639.66;7388399;19;20027;-58
2022/09/19 05:11:01;;;;;;;0.40;0.40;;;;;;;18.27;100.00;100635.38;7388882;19;20110;-58
2022/09/19 05:13:31;;;;;;;1.20;0.32;;;;;;;18.40;100.00;100630.03;7388818;19;20035;-58
2022/09/19 05:16:00;;;;;;;2.25;0.50;;;;;;;18.74;100.00;100631.63;7391585;19;20557;-58
2022/09/19 05:18:30;;;;;;;0.90;0.65;;;;;;;18.36;100.00;100635.16;7389545;19;20463;-58
2022/09/19 05:20:56;;;;;;;0.50;0.47;;;;;;;18.31;100.00;100633.88;7390207;19;20011;-58
2022/09/19 05:23:24;;;;;;;0.70;0.30;;;;;;;18.11;100.00;100640.50;7390379;19;20014;-58
2022/09/19 05:25:53;;;;;;;0.93;0.28;;;;;;;18.24;100.00;100633.59;7393866;19;20026;-58
2022/09/19 05:28:26;;;;;;;1.27;0.22;;;;;;;18.11;100.00;100637.66;7394632;19;20022;-58
2022/09/19 05:30:55;;;;;;;1.85;0.30;;;;;;;18.30;100.00;100642.84;7390978;19;20363;-57
2022/09/19 05:33:28;;;;;;;0.10;0.10;;;;;;;18.11;100.00;100643.31;7389949;19;20039;-58
2022/09/19 05:36:00;;;;;;;0.43;0.43;;;;;;;18.53;100.00;100645.22;7392398;19;20608;-58
2022/09/19 05:38:55;;;;;;;1.25;0.50;;;;;;;18.47;100.00;100646.50;7385227;19;20021;-58
2022/09/19 05:41:58;;;;;;;0.90;0.43;;;;;;;18.59;100.00;100643.16;7388415;19;20014;-58
2022/09/19 05:44:26;;;;;;;1.35;0.65;;;;;;;18.02;100.00;100635.06;7388337;19;20029;-58
2022/09/19 05:46:58;;;;;;;1.13;0.40;;;;;;;18.05;100.00;100633.28;7387863;19;20015;-57
2022/09/19 05:49:25;;;;;;;0.28;0.28;;;;;;;18.37;100.00;100631.03;7388102;19;20011;-58
2022/09/19 05:51:56;;;;;;;0.63;0.55;;;;;;;18.07;100.00;100634.31;7385584;19;20072;-57
2022/09/19 05:54:27;;;;;;;0.40;0.40;;;;;;;18.35;100.00;100639.25;7387902;19;20014;-57
2022/09/19 05:57:12;;;;;;;2.15;0.50;;;;;;;18.26;100.00;100631.78;7386814;19;20008;-57
2022/09/19 05:59:39;;;;;;;0.57;0.57;;;;;;;18.24;100.00;100644.84;7390836;19;20015;-58
2022/09/19 06:02:10;;;;;;;0.90;0.50;;;;;;;17.95;100.00;100641.19;7388925;19;20014;-57
2022/09/19 06:04:52;;;;;;;1.38;0.65;;;;;;;18.04;100.00;100645.84;7390810;19;20010;-57
2022/09/19 06:07:20;;;;;;;0.88;0.50;;;;;;;17.89;100.00;100642.44;7388454;19;20011;-57
2022/09/19 06:09:49;;;;;;;5.95;0.93;;;;;;;17.76;100.00;100657.00;7388502;19;20014;-57
2022/09/19 06:12:15;;;;;;;2.25;0.95;;;;;;;17.83;100.00;100658.56;7389451;19;20016;-58
2022/09/19 06:14:41;;;;;;;4.00;0.65;;;;;;;17.87;100.00;100659.88;7388319;19;20021;-58
2022/09/19 06:17:11;;;;;;;1.83;0.60;;;;;;;18.09;100.00;100668.41;7388475;19;20021;-58
2022/09/19 06:19:49;;;;;;;0.43;0.28;;;;;;;18.23;100.00;100660.25;7387797;19;20038;-57
2022/09/19 06:22:23;;;;;;;0.38;0.38;;;;;;;18.58;100.00;100669.06;7388140;19;20014;-58
2022/09/19 06:24:53;;;;;;;4.13;0.60;;;;;;;18.57;100.00;100670.34;7389900;19;20010;-57
2022/09/19 06:27:20;;;;;;;0.55;0.35;;;;;;;18.38;100.00;100669.25;7389690;19;20014;-58
2022/09/19 06:29:47;;;;;;;0.22;0.22;;;;;;;18.04;100.00;100677.63;7387533;19;20010;-58
2022/09/19 06:32:39;;;;;;;0.65;0.65;;;;;;;17.98;100.00;100679.66;7389231;19;20528;-57
2022/09/19 06:35:28;;;;;;;4.72;1.00;;;;;;;18.01;100.00;100670.19;7393579;19;20011;-57
2022/09/19 06:38:00;;;;;;;2.42;0.65;;;;;;;18.00;100.00;100679.91;7387495;19;20006;-58
2022/09/19 06:40:27;;;;;;;0.47;0.47;;;;;;;18.29;100.00;100678.72;7387083;19;20531;-57
2022/09/19 06:43:02;;;;;;;1.23;0.45;;;;;;;18.28;100.00;100679.25;7389298;19;20015;-57
2022/09/19 06:45:43;;;;;;;0.73;0.40;;;;;;;15.40;100.00;100682.34;7390755;19;20022;-58
2022/09/19 06:48:28;;;;;;;0.50;0.22;;;;;;;17.84;100.00;100683.44;7389391;19;20014;-57
2022/09/19 06:51:02;;;;;;;0.68;0.57;;;;;;;18.01;100.00;100680.69;7388826;19;20030;-57
2022/09/19 06:53:30;;;;;;;3.50;0.60;;;;;;;16.15;100.00;100685.91;7387260;19;20015;-57
2022/09/19 06:56:01;;;;;;;2.47;0.60;;;;;;;15.80;100.00;100688.78;7391372;19;20006;-57
2022/09/19 06:58:27;;;;;;;2.65;0.50;;;;;;;13.47;100.00;100695.06;7388125;19;20048;-57
2022/09/19 07:00:54;;;;;;;1.88;0.85;;;;;;;13.22;100.00;100703.91;7388472;19;20003;-57
2022/09/19 07:03:21;;;;;;;13.63;1.40;;;;;;;12.97;100.00;100706.31;7387218;19;20035;-57
2022/09/19 07:05:59;;;;;;;3.63;0.82;;;;;;;12.84;100.00;100703.72;7398093;19;20010;-57
2022/09/19 07:08:32;;;;;;;2.63;1.05;;;;;;;12.86;100.00;100706.81;7394238;19;20049;-57
2022/09/19 07:11:01;;;;;;;7.03;0.95;;;;;;;12.98;100.00;100708.63;7394536;19;20089;-57
2022/09/19 07:13:27;;;;;;;1.13;0.63;;;;;;;12.85;100.00;100710.84;7394934;19;20014;-57
2022/09/19 07:16:02;;;;;;;2.22;0.40;;;;;;;12.78;100.00;100711.94;7397881;19;20024;-57
2022/09/19 07:18:36;;;;;;;2.40;0.65;;;;;;;12.82;100.00;100700.63;7392470;19;20333;-57
2022/09/19 07:21:21;;;;;;;4.38;0.68;;;;;;;12.95;100.00;100696.38;7395969;19;20049;-57
2022/09/19 07:23:48;;;;;;;2.65;1.65;;;;;;;13.07;100.00;100702.25;7394020;19;20014;-57
2022/09/19 07:26:25;;;;;;;3.83;0.70;;;;;;;13.28;100.00;100704.81;7394431;19;20023;-57
2022/09/19 07:28:52;;;;;;;0.95;0.40;;;;;;;13.38;100.00;100708.34;7392680;19;20015;-58
2022/09/19 07:31:18;;;;;;;5.38;1.25;;;;;;;13.24;100.00;100706.22;7395691;19;20018;-57
2022/09/19 07:33:47;;;;;;;0.98;0.73;;;;;;;15.08;100.00;100690.53;7393752;19;20077;-57
2022/09/19 07:36:13;;;;;;;1.33;1.02;;;;;;;17.82;100.00;100693.69;7397753;19;20015;-57
2022/09/19 07:38:42;;;;;;;1.45;0.80;;;;;;;17.08;100.00;100687.31;7391204;19;20035;-57
2022/09/19 07:41:09;;;;;;;3.08;1.13;;;;;;;18.07;100.00;100685.06;7394062;19;20015;-57
2022/09/19 07:43:39;;;;;;;8.77;0.85;;;;;;;18.68;100.00;100690.09;7394795;19;20018;-57
2022/09/19 07:46:08;;;;;;;3.60;0.52;;;;;;;18.40;100.00;100690.03;7399194;19;20027;-57
2022/09/19 07:48:57;;;;;;;2.08;0.45;;;;;;;20.27;100.00;100696.75;7392793;19;20022;-57
2022/09/19 07:51:44;;;;;;;1.85;0.98;;;;;;;20.14;100.00;100687.28;7393956;19;20018;-57
2022/09/19 07:54:10;;;;;;;1.95;0.73;;;;;;;19.35;100.00;100686.00;7393675;19;20049;-58
2022/09/19 07:56:39;;;;;;;1.05;0.32;;;;;;;19.32;100.00;100691.88;7393880;19;20027;-57
2022/09/19 07:59:05;;;;;;;2.88;0.85;;;;;;;18.75;100.00;100687.53;7390430;19;20090;-57
2022/09/19 08:01:43;;;;;;;1.15;0.55;;;;;;;20.25;100.00;100692.91;7392337;19;20074;-58
2022/09/19 08:04:11;;;;;;;1.38;0.70;;;;;;;20.24;100.00;100689.31;7393770;19;20498;-58
2022/09/19 08:06:45;;;;;;;2.17;0.80;;;;;;;20.30;100.00;100689.28;7391567;19;20463;-58
2022/09/19 08:09:12;;;;;;;5.50;1.23;;;;;;;17.26;100.00;100690.50;7391940;19;20082;-57
2022/09/19 08:12:12;;;;;;;3.88;0.98;;;;;;;18.55;100.00;100692.66;7393031;19;20015;-57
2022/09/19 08:14:53;;;;;;;1.52;0.80;;;;;;;17.01;100.00;100699.00;7394248;19;20028;-58
2022/09/19 08:17:20;;;;;;;5.60;1.15;;;;;;;14.24;100.00;100712.72;7391994;19;20015;-57
2022/09/19 08:19:47;;;;;;;2.35;1.23;;;;;;;13.94;100.00;100721.53;7393129;19;20011;-58
2022/09/19 08:22:14;;;;;;;4.32;1.77;;;;;;;13.96;100.00;100724.63;7394725;19;20017;-57
2022/09/19 08:24:49;;;;;;;10.68;2.00;;;;;;;14.33;100.00;100731.53;7393756;19;20014;-58
2022/09/19 08:27:15;;;;;;;2.22;0.95;;;;;;;14.24;100.00;100728.75;7396795;19;20002;-57
2022/09/19 08:29:42;;;;;;;5.38;1.90;;;;;;;15.62;100.00;100719.94;7395866;19;20025;-58
2022/09/19 08:32:12;;;;;;;3.92;1.50;;;;;;;16.51;100.00;100713.41;7393071;19;20027;-58
2022/09/19 08:34:38;;;;;;;2.90;1.65;;;;;;;17.82;100.00;100710.59;7392739;19;20018;-57
2022/09/19 08:37:06;;;;;;;2.92;1.25;;;;;;;18.34;100.00;100717.47;7393021;19;20006;-57
2022/09/19 08:39:35;;;;;;;5.20;1.70;;;;;;;17.63;100.00;100718.66;7390288;19;20031;-57
2022/09/19 08:42:19;;;;;;;4.40;1.30;;;;;;;19.25;100.00;100707.28;7394969;19;20372;-57
2022/09/19 08:44:50;;;;;;;4.07;1.42;;;;;;;19.43;100.00;100712.44;7392871;19;20050;-57
2022/09/19 08:47:21;;;;;;;2.42;0.63;;;;;;;20.01;100.00;100718.19;7395161;19;20006;-57
2022/09/19 08:50:12;;;;;;;8.02;1.33;;;;;;;20.20;100.00;100713.47;7393601;19;20455;-57
2022/09/19 08:52:46;;;;;;;5.43;0.85;;;;;;;20.20;100.00;100724.78;7394044;19;20014;-57
2022/09/19 08:55:20;;;;;;;4.00;1.02;;;;;;;20.39;100.00;100725.75;7393270;19;20011;-57
2022/09/19 08:58:00;;;;;;;6.63;1.85;;;;;;;20.23;100.00;100723.78;7392800;19;20800;-58
2022/09/19 09:00:39;;;;;;;3.88;1.42;;;;;;;19.75;100.00;100724.16;7389441;19;20062;-58
2022/09/19 09:03:13;;;;;;;3.85;1.20;;;;;;;20.37;100.00;100717.03;7393011;19;20031;-57
2022/09/19 09:06:02;;;;;;;3.28;1.05;;;;;;;20.70;100.00;100724.53;7394347;19;20042;-58
2022/09/19 09:08:33;;;;;;;4.20;1.50;;;;;;;20.90;100.00;100719.25;7391110;19;20409;-57
2022/09/19 09:11:32;;;;;;;4.97;1.27;;;;;;;21.22;100.00;100724.44;7390145;19;20010;-57
2022/09/19 09:14:16;;;;;;;6.95;1.05;;;;;;;21.35;100.00;100727.41;7392313;19;20010;-57
2022/09/19 09:17:10;;;;;;;4.95;1.83;;;;;;;21.49;100.00;100717.72;7390048;19;20491;-57
2022/09/19 09:20:04;;;;;;;2.75;1.30;;;;;;;21.97;100.00;100717.72;7387063;19;20028;-57
2022/09/19 09:22:41;;;;;;;4.72;1.52;;;;;;;21.92;100.00;100721.41;7389615;19;20007;-57
2022/09/19 09:25:32;;;;;;;5.63;1.95;;;;;;;22.00;100.00;100725.19;7390120;19;20024;-57
2022/09/19 09:28:09;;;;;;;3.63;1.20;;;;;;;21.95;100.00;100719.56;7390609;19;20793;-57
2022/09/19 09:31:19;;;;;;;7.38;2.03;;;;;;;21.93;100.00;100725.78;7388567;19;20380;-57
2022/09/19 09:33:56;;;;;;;2.90;1.15;;;;;;;21.91;100.00;100731.22;7390397;19;20018;-57
2022/09/19 09:36:27;;;;;;;5.38;1.13;;;;;;;21.79;100.00;100732.59;7389599;19;20021;-57
2022/09/19 09:39:02;;;;;;;2.17;0.98;;;;;;;21.77;100.00;100743.72;7388281;19;20045;-57
2022/09/19 09:41:45;;;;;;;6.43;1.10;;;;;;;21.67;100.00;100734.03;7389629;19;20019;-57
2022/09/19 09:44:13;;;;;;;7.78;1.58;;;;;;;21.82;100.00;100734.38;7389252;19;20070;-57
2022/09/19 09:46:49;;;;;;;9.27;2.08;;;;;;;21.57;100.00;100736.44;7389283;19;20021;-57
2022/09/19 09:49:21;;;;;;;6.03;1.55;;;;;;;21.78;100.00;100731.84;7390556;19;20022;-57
2022/09/19 09:52:25;;;;;;;2.60;1.10;;;;;;;17.68;100.00;100734.84;7389698;19;20447;-57
2022/09/19 09:58:35;;;;;;;2.65;1.02;;;;;;;16.52;100.00;100737.41;7389439;19;20010;-57
2022/09/19 10:04:25;;;;;;;3.13;1.20;;;;;;;16.37;100.00;100731.09;7389351;19;20010;-57
2022/09/19 10:07:06;;;;;;;3.83;1.20;;;;;;;16.31;100.00;100740.72;7389152;19;20010;-57
2022/09/19 10:09:35;;;;;;;2.55;0.77;;;;;;;16.22;100.00;100738.84;7389356;19;20360;-57
2022/09/19 10:12:21;;;;;;;2.30;0.80;;;;;;;16.18;100.00;100735.47;7389079;19;20074;-57
2022/09/19 10:14:54;;;;;;;1.33;0.93;;;;;;;16.10;100.00;100739.97;7388518;19;20578;-57
2022/09/19 10:17:45;;;;;;;3.53;0.45;;;;;;;16.12;100.00;100740.25;7388158;19;20014;-57
2022/09/19 10:20:31;;;;;;;2.88;0.85;;;;;;;15.87;100.00;100743.78;7387756;19;20021;-57
2022/09/19 10:22:57;;;;;;;4.03;0.90;;;;;;;15.94;100.00;100743.34;7388677;19;20081;-57
2022/09/19 10:25:26;;;;;;;2.70;0.82;;;;;;;15.98;100.00;100746.75;7390743;19;20014;-57
2022/09/19 10:27:54;;;;;;;2.38;0.77;;;;;;;15.95;100.00;100744.91;7390978;19;20082;-57
2022/09/19 10:30:37;;;;;;;0.75;0.40;;;;;;;16.13;100.00;100743.84;7388438;19;20014;-57
2022/09/19 10:33:25;;;;;;;2.22;0.30;;;;;;;16.53;100.00;100738.97;7386563;19;20524;-57
2022/09/19 10:36:03;;;;;;;1.60;0.43;;;;;;;16.64;100.00;100750.34;7391660;19;20337;-57
2022/09/19 10:38:46;;;;;;;0.57;0.20;;;;;;;16.68;100.00;100750.91;7390858;19;20010;-57
2022/09/19 10:41:12;;;;;;;0.35;0.20;;;;;;;16.97;100.00;100743.50;7401755;19;20035;-57
2022/09/19 10:43:50;;;;;;;0.65;0.30;;;;;;;19.93;100.00;100722.84;7406221;19;20368;-57
2022/09/19 10:46:31;;;;;;;0.25;0.10;;;;;;;21.48;100.00;100721.88;7405695;19;20011;-58
2022/09/19 10:49:21;;;;;;;0.55;0.43;;;;;;;22.33;100.00;100715.47;7403086;19;20035;-57
2022/09/19 10:51:51;;;;;;;1.80;0.70;;;;;;;22.77;100.00;100714.84;7402155;19;20084;-57
2022/09/19 10:54:43;;;;;;;1.23;0.57;;;;;;;22.79;100.00;100717.16;7405924;19;20513;-57
2022/09/19 10:57:36;;;;;;;0.43;0.13;;;;;;;22.49;100.00;100717.31;7401780;19;20496;-58
2022/09/19 11:00:04;;;;;;;0.20;0.10;;;;;;;22.59;100.00;100722.09;7401857;19;20015;-57
2022/09/19 11:02:34;;;;;;;;;;;;;;;23.25;100.00;100708.13;7402448;19;20034;-57
2022/09/19 11:05:03;;;;;;;1.42;0.20;;;;;;;23.43;100.00;100703.72;7405044;19;19945;-57
2022/09/19 11:07:50;;;;;;;1.92;0.25;;;;;;;23.18;100.00;100703.06;7403511;19;20010;-57
2022/09/19 11:10:38;;;;;;;0.40;0.13;;;;;;;23.20;100.00;100711.81;7402101;19;20022;-57
2022/09/19 11:13:22;;;;;;;1.08;0.30;;;;;;;23.08;100.00;100704.81;7401316;19;20011;-57
2022/09/19 11:16:05;;;;;;;1.52;0.43;;;;;;;23.63;100.00;100703.09;7404040;19;20010;-57
2022/09/19 11:18:43;;;;;;;0.65;0.30;;;;;;;23.21;100.00;100702.00;7400881;19;20018;-57
2022/09/19 11:21:17;;;;;;;0.65;0.32;;;;;;;23.42;100.00;100697.25;7400832;19;20010;-57
2022/09/19 11:23:57;;;;;;;1.13;0.20;;;;;;;23.40;100.00;100702.72;7401256;19;20032;-57
2022/09/19 11:26:42;;;;;;;0.98;0.20;;;;;;;23.89;100.00;100700.97;7401390;19;20014;-58
2022/09/19 11:29:44;;;;;;;1.08;0.25;;;;;;;23.38;100.00;100699.66;7401189;19;20007;-57
2022/09/19 11:32:34;;;;;;;0.30;0.20;;;;;;;23.70;100.00;100703.19;7400755;19;20018;-57
2022/09/19 11:35:25;;;;;;;0.28;0.10;;;;;;;23.28;100.00;100707.06;7403962;19;20010;-57
2022/09/19 11:38:15;;;;;;;0.10;0.10;;;;;;;23.01;100.00;100705.44;7400915;19;20460;-57
2022/09/19 11:41:04;;;;;;;0.63;0.30;;;;;;;22.84;100.00;100702.09;7400493;19;20015;-57
2022/09/19 11:43:59;;;;;;;0.65;0.22;;;;;;;22.85;100.00;100715.00;7400731;19;20463;-57
2022/09/19 11:46:49;;;;;;;1.38;0.30;;;;;;;22.78;100.00;100719.25;7400433;19;20018;-57
2022/09/19 11:49:51;;;;;;;0.10;0.10;;;;;;;22.79;100.00;100722.81;7400545;19;20027;-57
2022/09/19 11:52:25;;;;;;;0.52;0.47;;;;;;;22.14;100.00;100715.47;7393571;19;20042;-57
2022/09/19 11:55:31;;;;;;;3.13;0.35;;;;;;;22.23;100.00;100723.59;7395886;19;20027;-57
2022/09/19 11:58:38;;;;;;;0.57;0.50;;;;;;;21.90;100.00;100729.69;7391807;19;20007;-57
2022/09/19 12:01:28;;;;;;;1.27;0.52;;;;;;;21.61;100.00;100724.81;7391816;19;20024;-58
2022/09/19 12:04:26;;;;;;;2.00;0.25;;;;;;;21.92;100.00;100727.06;7395101;19;20017;-57